Weather at Bayreuth Airport

Public forecast

Using degrees Celsius for public forecast. Weather courtesy of forecast.io.

Closest aviation weather report (METAR) to Bayreuth Airport

Closest report is Hof-Plauen Airport, 20.0 nm (37.0 km) NNE.

2024/05/23 02:20 (retrieved 33 minutes ago)

EDQM 230220Z AUTO VRB03KT 9999 // FEW056/// 09/09 Q1014

Closest aviation forecast (TAF) to Bayreuth Airport

Forecast is more than 12 hours old.

Closest forecast is Grafenwöhr Army Air Field, 20.8 nm (38.4 km) SE.

2024/05/22 10:06 (retrieved 17 hours ago)

TAF ETIC 221000Z 2210/2316 23006KT 9999 BKN020 OVC060 QNH2982INS BECMG 2212/2213 26006KT 9999 SCT015 BKN060 QNH2985INS BECMG 2221/2222 VRB03KT 9999 SCT030 QNH2994INS BECMG 2300/2301 VRB03KT 4800 BR SCT030 QNH2996INS TEMPO 2301/2306 0500 FG BECMG 2307/2308 23003KT 9999 NSW FEW030 QNH3001INS TX19/2213Z TN09/2302Z